createdAt,value
2023-11-30T00:00:45.973Z,6.90
2023-11-30T00:05:48.745Z,9.88
2023-11-30T00:10:52.614Z,7.00
2023-11-30T00:15:57.080Z,2.88
2023-11-30T00:21:03.062Z,6.28
2023-11-30T00:26:07.060Z,4.43
2023-11-30T00:31:13.395Z,5.25
2023-11-30T00:36:16.712Z,4.57
2023-11-30T00:41:19.860Z,5.40
2023-11-30T00:46:26.185Z,6.47
2023-11-30T00:51:30.855Z,3.80
2023-11-30T00:56:33.951Z,1.13
2023-11-30T01:01:38.518Z,0.87
2023-11-30T01:06:41.626Z,0.87
2023-11-30T01:11:45.042Z,3.70
2023-11-30T01:16:49.495Z,2.37
2023-11-30T01:21:52.498Z,3.53
2023-11-30T01:26:55.425Z,3.20
2023-11-30T01:32:03.687Z,1.17
2023-11-30T01:37:06.841Z,4.13
2023-11-30T01:42:11.802Z,3.30
2023-11-30T01:47:17.930Z,1.63
2023-11-30T01:52:21.167Z,1.93
2023-11-30T01:57:28.493Z,6.30
2023-11-30T02:02:32.972Z,3.47
2023-11-30T02:07:35.830Z,3.30
2023-11-30T02:12:38.707Z,2.23
2023-11-30T02:17:42.791Z,4.00
2023-11-30T02:22:46.896Z,3.50
2023-11-30T02:27:50.168Z,1.58
2023-11-30T02:32:53.242Z,3.23
2023-11-30T02:37:57.379Z,1.63
2023-11-30T02:43:00.316Z,5.40
2023-11-30T02:48:03.140Z,1.70
2023-11-30T02:53:07.559Z,2.40
2023-11-30T02:58:10.500Z,2.63
2023-11-30T03:03:13.132Z,3.20
2023-11-30T03:08:18.260Z,1.93
2023-11-30T03:13:21.444Z,2.70
2023-11-30T03:18:24.262Z,2.83
2023-11-30T03:23:28.694Z,2.13
2023-11-30T03:28:31.424Z,0.83
2023-11-30T03:33:34.522Z,3.50
2023-11-30T03:38:39.060Z,1.50
2023-11-30T03:43:42.365Z,4.73
2023-11-30T03:48:45.717Z,2.30
2023-11-30T03:53:52.246Z,1.93
2023-11-30T03:58:55.197Z,1.50
2023-11-30T04:03:58.215Z,1.20
2023-11-30T04:09:02.643Z,2.37
2023-11-30T04:14:06.788Z,3.70
2023-11-30T04:19:10.759Z,1.07
2023-11-30T04:24:17.478Z,0.55
2023-11-30T04:29:20.176Z,2.70
2023-11-30T04:34:22.954Z,0.47
2023-11-30T04:39:27.106Z,0.57
2023-11-30T04:44:31.080Z,0.95
2023-11-30T04:49:34.136Z,1.60
2023-11-30T04:54:39.448Z,1.43
2023-11-30T04:59:42.680Z,0.03
2023-11-30T05:04:45.496Z,3.73
2023-11-30T05:09:50.148Z,1.33
2023-11-30T05:14:52.949Z,0.37
2023-11-30T05:19:55.965Z,0.93
2023-11-30T05:25:00.293Z,1.93
2023-11-30T05:30:05.778Z,1.73
2023-11-30T05:35:09.620Z,2.33
2023-11-30T05:40:15.233Z,0.77
2023-11-30T05:45:18.501Z,1.17
2023-11-30T05:50:21.545Z,1.40
2023-11-30T05:55:25.676Z,1.53
2023-11-30T06:05:30.967Z,0.20
2023-11-30T06:10:35.033Z,1.63
2023-11-30T06:20:40.539Z,0.93
2023-11-30T06:25:45.488Z,1.30
2023-11-30T06:30:48.471Z,1.03
2023-11-30T06:35:51.390Z,0.60
2023-11-30T06:40:55.979Z,0.30
2023-11-30T06:45:59.128Z,4.70
2023-11-30T06:51:02.169Z,0.90
2023-11-30T06:56:08.394Z,1.17
2023-11-30T07:01:12.469Z,2.60
2023-11-30T07:06:15.450Z,1.52
2023-11-30T07:11:19.706Z,0.10
2023-11-30T07:21:24.919Z,0.83
2023-11-30T07:26:30.686Z,1.17
2023-11-30T07:31:34.038Z,1.97
2023-11-30T07:36:36.681Z,0.33
2023-11-30T07:41:40.855Z,1.87
2023-11-30T07:51:47.383Z,0.73
2023-11-30T07:56:51.470Z,4.85
2023-11-30T08:01:54.352Z,0.90
2023-11-30T08:06:57.009Z,4.13
2023-11-30T08:12:01.229Z,2.03
2023-11-30T08:17:06.106Z,0.88
2023-11-30T08:22:09.052Z,4.23
2023-11-30T08:27:14.020Z,1.00
2023-11-30T08:32:17.557Z,0.40
2023-11-30T08:37:20.359Z,0.17
2023-11-30T08:42:24.546Z,3.97
2023-11-30T08:52:30.745Z,2.08
2023-11-30T08:57:35.525Z,4.40
2023-11-30T09:02:38.878Z,9.82
2023-11-30T09:07:44.613Z,5.70
2023-11-30T09:12:49.016Z,4.47
2023-11-30T09:17:52.351Z,5.18
2023-11-30T09:22:57.717Z,3.13
2023-11-30T09:28:02.052Z,2.70
2023-11-30T09:33:06.032Z,3.15
2023-11-30T09:38:09.936Z,4.13
2023-11-30T09:43:19.266Z,4.25
2023-11-30T09:48:21.907Z,3.08
2023-11-30T09:53:25.221Z,1.20
2023-11-30T09:58:29.603Z,2.77
2023-11-30T10:08:34.807Z,3.33
2023-11-30T10:13:45.206Z,3.40
2023-11-30T10:18:50.107Z,6.13
2023-11-30T10:23:52.894Z,4.57
2023-11-30T10:29:03.727Z,9.20
2023-11-30T10:34:09.119Z,3.50
2023-11-30T10:39:18.144Z,8.77
2023-11-30T10:44:27.164Z,4.93
2023-11-30T10:49:30.366Z,2.70
2023-11-30T10:54:36.884Z,2.33
2023-11-30T10:59:44.292Z,7.47
2023-11-30T11:04:48.963Z,3.17
2023-11-30T11:09:53.451Z,8.93
2023-11-30T11:15:14.437Z,6.37
2023-11-30T11:20:25.443Z,0.83
2023-11-30T11:25:35.208Z,10.43
2023-11-30T11:30:43.779Z,2.43
2023-11-30T11:35:47.847Z,4.83
2023-11-30T11:40:50.738Z,3.75
2023-11-30T11:45:55.105Z,2.33
2023-11-30T11:50:59.421Z,3.33
2023-11-30T11:56:03.414Z,6.97
2023-11-30T12:01:08.198Z,2.13
2023-11-30T12:06:11.668Z,5.63
2023-11-30T12:11:14.462Z,1.53
2023-11-30T12:16:19.334Z,4.37
2023-11-30T12:21:23.959Z,6.97
2023-11-30T12:26:27.097Z,5.77
2023-11-30T12:31:31.911Z,3.30
2023-11-30T12:36:34.708Z,2.77
2023-11-30T12:41:37.748Z,5.65
2023-11-30T12:46:42.848Z,4.20
2023-11-30T12:51:46.228Z,3.13
2023-11-30T12:56:49.298Z,3.67
2023-11-30T13:01:56.293Z,6.03
2023-11-30T13:06:59.468Z,3.70
2023-11-30T13:12:02.545Z,3.63
2023-11-30T13:17:09.984Z,0.87
2023-11-30T13:22:12.982Z,3.37
2023-11-30T13:27:15.561Z,6.93
2023-11-30T13:32:31.715Z,4.93
2023-11-30T13:37:36.125Z,7.47
2023-11-30T13:42:39.524Z,8.27
2023-11-30T13:47:48.535Z,4.63
2023-11-30T13:52:53.569Z,5.03
2023-11-30T13:57:57.031Z,5.20
2023-11-30T14:03:02.499Z,4.18
2023-11-30T14:08:06.809Z,5.70
2023-11-30T14:13:10.357Z,3.65
2023-11-30T14:18:14.762Z,10.63
2023-11-30T14:23:17.870Z,5.67
2023-11-30T14:28:22.862Z,4.90
2023-11-30T14:33:28.291Z,7.07
2023-11-30T14:38:31.326Z,8.60
2023-11-30T14:43:35.382Z,9.57
2023-11-30T14:48:40.023Z,7.75
2023-11-30T14:53:43.148Z,5.70
2023-11-30T14:58:46.216Z,8.27
2023-11-30T15:03:50.733Z,3.50
2023-11-30T15:08:53.718Z,5.57
2023-11-30T15:13:57.892Z,8.10
2023-11-30T15:24:11.224Z,3.00
2023-11-30T15:29:14.608Z,1.57
2023-11-30T15:34:17.239Z,2.20
2023-11-30T15:39:25.381Z,5.70
2023-11-30T15:44:28.212Z,9.00
2023-11-30T15:49:32.746Z,10.55
2023-11-30T15:54:40.203Z,2.38
2023-11-30T15:59:43.353Z,5.97
2023-11-30T16:04:46.148Z,9.80
2023-11-30T16:09:51.366Z,5.93
2023-11-30T16:14:54.824Z,4.97
2023-11-30T16:20:01.723Z,1.57
2023-11-30T16:25:06.360Z,8.30
2023-11-30T16:30:10.091Z,6.17
2023-11-30T16:35:13.404Z,2.90
2023-11-30T16:40:17.918Z,1.83
2023-11-30T16:45:21.697Z,12.53
2023-11-30T16:50:25.500Z,11.40
2023-11-30T16:55:30.225Z,4.80
2023-11-30T17:00:32.971Z,10.43
2023-11-30T17:05:36.070Z,4.73
2023-11-30T17:10:42.685Z,12.93
2023-11-30T17:15:46.062Z,8.17
2023-11-30T17:20:49.602Z,8.80
2023-11-30T17:25:54.136Z,4.78
2023-11-30T17:30:59.074Z,7.10
2023-11-30T17:36:04.610Z,13.33
2023-11-30T17:41:11.635Z,11.70
2023-11-30T17:46:17.043Z,9.17
2023-11-30T17:51:19.921Z,13.30
2023-11-30T17:56:24.135Z,11.03
2023-11-30T18:01:26.992Z,25.15
2023-11-30T18:06:30.089Z,16.07
2023-11-30T18:11:35.059Z,15.07
2023-11-30T18:16:38.360Z,12.63
2023-11-30T18:21:41.389Z,13.67
2023-11-30T18:26:47.647Z,1.03
2023-11-30T18:31:52.406Z,14.07
2023-11-30T18:36:55.664Z,13.40
2023-11-30T18:42:00.467Z,11.48
2023-11-30T18:47:04.198Z,8.65
2023-11-30T18:52:07.670Z,16.38
2023-11-30T18:57:12.117Z,14.63
2023-11-30T19:02:17.589Z,4.47
2023-11-30T19:07:20.806Z,9.90
2023-11-30T19:12:26.626Z,9.10
2023-11-30T19:17:30.135Z,20.00
2023-11-30T19:22:33.158Z,7.45
2023-11-30T19:27:37.452Z,10.52
2023-11-30T19:37:43.933Z,14.20
2023-11-30T19:42:48.773Z,15.02
2023-11-30T19:47:51.558Z,22.38
2023-11-30T19:52:55.179Z,15.33
2023-11-30T19:57:59.576Z,25.45
2023-11-30T20:03:02.549Z,30.15
2023-11-30T20:08:06.317Z,29.95
2023-11-30T20:13:11.729Z,31.05
2023-11-30T20:18:14.609Z,37.80
2023-11-30T20:23:18.000Z,42.65
2023-11-30T20:28:22.846Z,24.47
2023-11-30T20:33:25.571Z,20.05
2023-11-30T20:38:29.471Z,16.90
2023-11-30T20:43:33.699Z,19.40
2023-11-30T20:53:39.241Z,20.52
2023-11-30T20:58:47.668Z,17.98
2023-11-30T21:03:51.779Z,15.30
2023-11-30T21:08:54.646Z,18.45
2023-11-30T21:14:03.090Z,18.98
2023-11-30T21:19:06.247Z,14.87
2023-11-30T21:24:09.189Z,13.80
2023-11-30T21:29:13.729Z,14.67
2023-11-30T21:39:20.545Z,12.70
2023-11-30T21:44:24.681Z,15.32
2023-11-30T21:54:30.719Z,13.40
2023-11-30T21:59:37.695Z,16.37
2023-11-30T22:04:41.319Z,14.98
2023-11-30T22:09:44.229Z,16.05
2023-11-30T22:14:48.193Z,16.73
2023-11-30T22:19:51.286Z,19.48
2023-11-30T22:24:55.662Z,16.67
2023-11-30T22:30:00.118Z,18.23
2023-11-30T22:35:03.392Z,15.23
2023-11-30T22:40:07.070Z,17.30
2023-11-30T22:45:12.189Z,18.20
2023-11-30T22:50:15.169Z,17.02
2023-11-30T22:55:18.195Z,18.13
2023-11-30T23:00:25.621Z,17.67
2023-11-30T23:05:28.836Z,12.57
2023-11-30T23:10:31.876Z,5.32
2023-11-30T23:15:36.094Z,20.73
2023-11-30T23:20:39.266Z,10.27
2023-11-30T23:25:42.492Z,22.00
2023-11-30T23:30:47.341Z,20.40
2023-11-30T23:35:50.125Z,17.58
2023-11-30T23:40:53.253Z,13.85
2023-11-30T23:45:57.351Z,14.85
2023-11-30T23:51:00.303Z,16.90
2023-11-30T23:56:03.141Z,17.92
